sensor_id;sensor_type;location;lat;lon;timestamp;pressure;altitude;pressure_sealevel;temperature;humidity
41967;BME280;27656;53.068;8.818;2024-03-02T00:00:24;100358.47;;;5.71;100.00
41967;BME280;27656;53.068;8.818;2024-03-02T00:02:51;100351.16;;;5.65;100.00
41967;BME280;27656;53.068;8.818;2024-03-02T00:05:19;100352.69;;;5.67;100.00
41967;BME280;27656;53.068;8.818;2024-03-02T00:07:52;100348.53;;;5.65;100.00
41967;BME280;27656;53.068;8.818;2024-03-02T00:10:21;100351.00;;;5.66;100.00
41967;BME280;27656;53.068;8.818;2024-03-02T00:12:51;100353.50;;;5.58;100.00
41967;BME280;27656;53.068;8.818;2024-03-02T00:15:32;100346.59;;;5.57;100.00
41967;BME280;27656;53.068;8.818;2024-03-02T00:18:04;100343.72;;;5.60;100.00
41967;BME280;27656;53.068;8.818;2024-03-02T00:20:31;100345.88;;;5.55;100.00
41967;BME280;27656;53.068;8.818;2024-03-02T00:23:05;100347.69;;;5.55;100.00
41967;BME280;27656;53.068;8.818;2024-03-02T00:25:43;100346.03;;;5.53;100.00
41967;BME280;27656;53.068;8.818;2024-03-02T00:28:24;100345.75;;;5.57;100.00
41967;BME280;27656;53.068;8.818;2024-03-02T00:31:04;100349.34;;;5.56;100.00
41967;BME280;27656;53.068;8.818;2024-03-02T00:33:34;100346.31;;;5.50;100.00
41967;BME280;27656;53.068;8.818;2024-03-02T00:36:02;100349.88;;;5.49;100.00
41967;BME280;27656;53.068;8.818;2024-03-02T00:38:30;100340.63;;;5.45;100.00
41967;BME280;27656;53.068;8.818;2024-03-02T00:41:04;100346.03;;;5.44;100.00
41967;BME280;27656;53.068;8.818;2024-03-02T00:43:43;100333.34;;;5.49;100.00
41967;BME280;27656;53.068;8.818;2024-03-02T00:46:16;100338.88;;;5.46;100.00
41967;BME280;27656;53.068;8.818;2024-03-02T00:48:50;100330.16;;;5.45;100.00
41967;BME280;27656;53.068;8.818;2024-03-02T00:51:18;100327.72;;;5.44;100.00
41967;BME280;27656;53.068;8.818;2024-03-02T00:53:44;100329.06;;;5.38;100.00
41967;BME280;27656;53.068;8.818;2024-03-02T00:56:11;100331.97;;;5.35;100.00
41967;BME280;27656;53.068;8.818;2024-03-02T00:58:38;100334.84;;;5.32;100.00
41967;BME280;27656;53.068;8.818;2024-03-02T01:01:05;100337.72;;;5.29;100.00
41967;BME280;27656;53.068;8.818;2024-03-02T01:03:33;100328.75;;;5.22;100.00
41967;BME280;27656;53.068;8.818;2024-03-02T01:06:00;100326.00;;;5.23;100.00
41967;BME280;27656;53.068;8.818;2024-03-02T01:08:27;100316.63;;;5.21;100.00
41967;BME280;27656;53.068;8.818;2024-03-02T01:10:53;100312.09;;;5.23;100.00
41967;BME280;27656;53.068;8.818;2024-03-02T01:13:24;100323.50;;;5.22;100.00
41967;BME280;27656;53.068;8.818;2024-03-02T01:15:50;100317.47;;;5.21;100.00
41967;BME280;27656;53.068;8.818;2024-03-02T01:18:17;100318.44;;;5.20;100.00
41967;BME280;27656;53.068;8.818;2024-03-02T01:20:44;100320.91;;;5.22;100.00
41967;BME280;27656;53.068;8.818;2024-03-02T01:23:10;100322.97;;;5.18;100.00
41967;BME280;27656;53.068;8.818;2024-03-02T01:25:36;100319.25;;;5.11;100.00
41967;BME280;27656;53.068;8.818;2024-03-02T01:28:04;100321.03;;;5.10;100.00
41967;BME280;27656;53.068;8.818;2024-03-02T01:30:30;100317.72;;;5.08;100.00
41967;BME280;27656;53.068;8.818;2024-03-02T01:32:57;100304.91;;;5.05;100.00
41967;BME280;27656;53.068;8.818;2024-03-02T01:35:25;100307.78;;;5.02;100.00
41967;BME280;27656;53.068;8.818;2024-03-02T01:37:53;100306.84;;;5.03;100.00
41967;BME280;27656;53.068;8.818;2024-03-02T01:40:20;100303.50;;;5.01;100.00
41967;BME280;27656;53.068;8.818;2024-03-02T01:42:46;100304.84;;;4.96;100.00
41967;BME280;27656;53.068;8.818;2024-03-02T01:45:13;100307.47;;;4.96;100.00
41967;BME280;27656;53.068;8.818;2024-03-02T01:47:39;100304.59;;;4.89;100.00
41967;BME280;27656;53.068;8.818;2024-03-02T01:50:07;100300.28;;;4.88;100.00
41967;BME280;27656;53.068;8.818;2024-03-02T01:52:33;100298.09;;;4.93;100.00
41967;BME280;27656;53.068;8.818;2024-03-02T01:55:00;100290.66;;;4.88;100.00
41967;BME280;27656;53.068;8.818;2024-03-02T01:57:26;100288.75;;;4.91;100.00
41967;BME280;27656;53.068;8.818;2024-03-02T01:59:53;100294.13;;;4.89;100.00
41967;BME280;27656;53.068;8.818;2024-03-02T02:02:19;100293.28;;;4.88;100.00
41967;BME280;27656;53.068;8.818;2024-03-02T02:04:46;100296.88;;;4.97;100.00
41967;BME280;27656;53.068;8.818;2024-03-02T02:07:13;100293.03;;;4.92;100.00
41967;BME280;27656;53.068;8.818;2024-03-02T02:09:43;100290.94;;;4.85;100.00
41967;BME280;27656;53.068;8.818;2024-03-02T02:12:10;100278.69;;;4.86;100.00
41967;BME280;27656;53.068;8.818;2024-03-02T02:14:37;100277.19;;;4.93;100.00
41967;BME280;27656;53.068;8.818;2024-03-02T02:17:05;100274.28;;;4.86;100.00
41967;BME280;27656;53.068;8.818;2024-03-02T02:19:31;100269.19;;;4.85;100.00
41967;BME280;27656;53.068;8.818;2024-03-02T02:21:58;100261.63;;;4.82;100.00
41967;BME280;27656;53.068;8.818;2024-03-02T02:24:24;100265.19;;;4.81;100.00
41967;BME280;27656;53.068;8.818;2024-03-02T02:26:51;100270.09;;;4.74;100.00
41967;BME280;27656;53.068;8.818;2024-03-02T02:29:17;100263.50;;;4.70;100.00
41967;BME280;27656;53.068;8.818;2024-03-02T02:31:44;100262.00;;;4.67;100.00
41967;BME280;27656;53.068;8.818;2024-03-02T02:34:10;100265.66;;;4.65;100.00
41967;BME280;27656;53.068;8.818;2024-03-02T02:36:38;100270.47;;;4.60;100.00
41967;BME280;27656;53.068;8.818;2024-03-02T02:39:08;100259.47;;;4.56;100.00
41967;BME280;27656;53.068;8.818;2024-03-02T02:41:37;100259.19;;;4.59;100.00
41967;BME280;27656;53.068;8.818;2024-03-02T02:44:04;100260.97;;;4.59;100.00
41967;BME280;27656;53.068;8.818;2024-03-02T02:46:30;100264.81;;;4.55;100.00
41967;BME280;27656;53.068;8.818;2024-03-02T02:48:57;100264.81;;;4.55;100.00
41967;BME280;27656;53.068;8.818;2024-03-02T02:51:23;100253.66;;;4.53;100.00
41967;BME280;27656;53.068;8.818;2024-03-02T02:53:51;100258.75;;;4.54;100.00
41967;BME280;27656;53.068;8.818;2024-03-02T02:56:18;100250.09;;;4.54;100.00
41967;BME280;27656;53.068;8.818;2024-03-02T02:58:44;100252.13;;;4.50;100.00
41967;BME280;27656;53.068;8.818;2024-03-02T03:01:11;100247.19;;;4.47;100.00
41967;BME280;27656;53.068;8.818;2024-03-02T03:03:37;100248.97;;;4.46;100.00
41967;BME280;27656;53.068;8.818;2024-03-02T03:06:04;100240.56;;;4.43;100.00
41967;BME280;27656;53.068;8.818;2024-03-02T03:08:30;100242.34;;;4.42;100.00
41967;BME280;27656;53.068;8.818;2024-03-02T03:10:57;100245.06;;;4.41;100.00
41967;BME280;27656;53.068;8.818;2024-03-02T03:13:23;100241.63;;;4.40;100.00
41967;BME280;27656;53.068;8.818;2024-03-02T03:15:50;100244.13;;;4.42;100.00
41967;BME280;27656;53.068;8.818;2024-03-02T03:18:16;100240.00;;;4.39;100.00
41967;BME280;27656;53.068;8.818;2024-03-02T03:20:43;100236.09;;;4.34;100.00
41967;BME280;27656;53.068;8.818;2024-03-02T03:23:09;100234.34;;;4.34;100.00
41967;BME280;27656;53.068;8.818;2024-03-02T03:25:41;100235.41;;;4.32;100.00
41967;BME280;27656;53.068;8.818;2024-03-02T03:28:08;100232.13;;;4.30;100.00
41967;BME280;27656;53.068;8.818;2024-03-02T03:30:37;100233.75;;;4.31;100.00
41967;BME280;27656;53.068;8.818;2024-03-02T03:33:05;100231.84;;;4.33;100.00
41967;BME280;27656;53.068;8.818;2024-03-02T03:35:34;100226.91;;;4.30;100.00
41967;BME280;27656;53.068;8.818;2024-03-02T03:38:01;100227.03;;;4.28;100.00
41967;BME280;27656;53.068;8.818;2024-03-02T03:40:27;100224.41;;;4.28;100.00
41967;BME280;27656;53.068;8.818;2024-03-02T03:42:54;100225.22;;;4.29;100.00
41967;BME280;27656;53.068;8.818;2024-03-02T03:45:22;100224.41;;;4.28;100.00
41967;BME280;27656;53.068;8.818;2024-03-02T03:47:48;100227.72;;;4.30;100.00
41967;BME280;27656;53.068;8.818;2024-03-02T03:50:15;100225.22;;;4.29;100.00
41967;BME280;27656;53.068;8.818;2024-03-02T03:52:41;100223.44;;;4.29;100.00
41967;BME280;27656;53.068;8.818;2024-03-02T03:55:08;100221.78;;;4.28;100.00
41967;BME280;27656;53.068;8.818;2024-03-02T03:57:35;100219.44;;;4.25;100.00
41967;BME280;27656;53.068;8.818;2024-03-02T04:00:02;100215.97;;;4.24;100.00
41967;BME280;27656;53.068;8.818;2024-03-02T04:02:29;100217.38;;;4.29;100.00
41967;BME280;27656;53.068;8.818;2024-03-02T04:04:56;100220.69;;;4.31;100.00
41967;BME280;27656;53.068;8.818;2024-03-02T04:07:22;100224.94;;;4.32;100.00
41967;BME280;27656;53.068;8.818;2024-03-02T04:09:49;100216.72;;;4.36;100.00
41967;BME280;27656;53.068;8.818;2024-03-02T04:12:15;100221.00;;;4.37;100.00
41967;BME280;27656;53.068;8.818;2024-03-02T04:14:42;100216.09;;;4.44;100.00
41967;BME280;27656;53.068;8.818;2024-03-02T04:17:09;100203.69;;;4.46;100.00
41967;BME280;27656;53.068;8.818;2024-03-02T04:19:35;100212.38;;;4.46;100.00
41967;BME280;27656;53.068;8.818;2024-03-02T04:22:02;100213.19;;;4.47;100.00
41967;BME280;27656;53.068;8.818;2024-03-02T04:24:43;100210.56;;;4.37;100.00
41967;BME280;27656;53.068;8.818;2024-03-02T04:27:10;100204.91;;;4.32;100.00
41967;BME280;27656;53.068;8.818;2024-03-02T04:29:36;100206.41;;;4.35;100.00
41967;BME280;27656;53.068;8.818;2024-03-02T04:32:03;100213.72;;;4.41;100.00
41967;BME280;27656;53.068;8.818;2024-03-02T04:34:29;100211.09;;;4.41;100.00
41967;BME280;27656;53.068;8.818;2024-03-02T04:36:59;100229.78;;;4.36;100.00
41967;BME280;27656;53.068;8.818;2024-03-02T04:39:25;100239.69;;;4.33;100.00
41967;BME280;27656;53.068;8.818;2024-03-02T04:41:52;100245.63;;;4.35;100.00
41967;BME280;27656;53.068;8.818;2024-03-02T04:44:19;100241.09;;;4.37;100.00
41967;BME280;27656;53.068;8.818;2024-03-02T04:46:45;100236.09;;;4.34;100.00
41967;BME280;27656;53.068;8.818;2024-03-02T04:49:12;100241.22;;;4.35;100.00
41967;BME280;27656;53.068;8.818;2024-03-02T04:51:38;100249.16;;;4.34;100.00
41967;BME280;27656;53.068;8.818;2024-03-02T04:54:05;100239.56;;;4.34;100.00
41967;BME280;27656;53.068;8.818;2024-03-02T04:56:31;100241.59;;;4.31;100.00
41967;BME280;27656;53.068;8.818;2024-03-02T04:58:58;100247.41;;;4.34;100.00
41967;BME280;27656;53.068;8.818;2024-03-02T05:01:24;100244.91;;;4.33;100.00
41967;BME280;27656;53.068;8.818;2024-03-02T05:03:51;100245.84;;;4.32;100.00
41967;BME280;27656;53.068;8.818;2024-03-02T05:06:17;100251.94;;;4.32;100.00
41967;BME280;27656;53.068;8.818;2024-03-02T05:08:44;100252.75;;;4.33;100.00
41967;BME280;27656;53.068;8.818;2024-03-02T05:11:11;100250.16;;;4.33;100.00
41967;BME280;27656;53.068;8.818;2024-03-02T05:13:56;100257.16;;;4.32;100.00
41967;BME280;27656;53.068;8.818;2024-03-02T05:16:22;100248.34;;;4.33;100.00
41967;BME280;27656;53.068;8.818;2024-03-02T05:18:49;100250.97;;;4.33;100.00
41967;BME280;27656;53.068;8.818;2024-03-02T05:21:16;100252.38;;;4.37;100.00
41967;BME280;27656;53.068;8.818;2024-03-02T05:23:42;100254.97;;;4.37;100.00
41967;BME280;27656;53.068;8.818;2024-03-02T05:26:09;100249.59;;;4.39;100.00
41967;BME280;27656;53.068;8.818;2024-03-02T05:28:38;100255.25;;;4.34;100.00
41967;BME280;27656;53.068;8.818;2024-03-02T05:31:05;100253.31;;;4.36;100.00
41967;BME280;27656;53.068;8.818;2024-03-02T05:33:31;100239.97;;;4.30;100.00
41967;BME280;27656;53.068;8.818;2024-03-02T05:35:59;100248.75;;;4.29;100.00
41967;BME280;27656;53.068;8.818;2024-03-02T05:38:26;100257.28;;;4.31;100.00
41967;BME280;27656;53.068;8.818;2024-03-02T05:40:52;100253.69;;;4.32;100.00
41967;BME280;27656;53.068;8.818;2024-03-02T05:43:22;100257.41;;;4.29;100.00
41967;BME280;27656;53.068;8.818;2024-03-02T05:45:48;100261.81;;;4.29;100.00
41967;BME280;27656;53.068;8.818;2024-03-02T05:48:15;100271.81;;;4.23;100.00
41967;BME280;27656;53.068;8.818;2024-03-02T05:50:42;100268.78;;;4.18;100.00
41967;BME280;27656;53.068;8.818;2024-03-02T05:53:08;100271.38;;;4.18;100.00
41967;BME280;27656;53.068;8.818;2024-03-02T05:55:35;100268.63;;;4.20;100.00
41967;BME280;27656;53.068;8.818;2024-03-02T05:58:01;100276.47;;;4.20;100.00
41967;BME280;27656;53.068;8.818;2024-03-02T06:00:47;100273.19;;;4.18;100.00
41967;BME280;27656;53.068;8.818;2024-03-02T06:03:13;100279.22;;;4.18;100.00
41967;BME280;27656;53.068;8.818;2024-03-02T06:05:40;100276.47;;;4.20;100.00
41967;BME280;27656;53.068;8.818;2024-03-02T06:08:07;100285.97;;;4.21;100.00
41967;BME280;27656;53.068;8.818;2024-03-02T06:10:33;100281.47;;;4.23;100.00
41967;BME280;27656;53.068;8.818;2024-03-02T06:13:00;100281.31;;;4.24;100.00
41967;BME280;27656;53.068;8.818;2024-03-02T06:15:26;100283.69;;;4.28;100.00
41967;BME280;27656;53.068;8.818;2024-03-02T06:17:53;100285.22;;;4.30;100.00
41967;BME280;27656;53.068;8.818;2024-03-02T06:20:20;100294.84;;;4.30;100.00
41967;BME280;27656;53.068;8.818;2024-03-02T06:22:46;100285.75;;;4.34;100.00
41967;BME280;27656;53.068;8.818;2024-03-02T06:25:12;100284.44;;;4.39;100.00
41967;BME280;27656;53.068;8.818;2024-03-02T06:27:39;100287.47;;;4.44;100.00
41967;BME280;27656;53.068;8.818;2024-03-02T06:30:06;100283.78;;;4.47;100.00
41967;BME280;27656;53.068;8.818;2024-03-02T06:32:33;100284.19;;;4.52;100.00
41967;BME280;27656;53.068;8.818;2024-03-02T06:34:59;100289.75;;;4.59;100.00
41967;BME280;27656;53.068;8.818;2024-03-02T06:37:26;100295.53;;;4.62;100.00
41967;BME280;27656;53.068;8.818;2024-03-02T06:39:52;100292.50;;;4.67;100.00
41967;BME280;27656;53.068;8.818;2024-03-02T06:42:19;100291.88;;;4.75;100.00
41967;BME280;27656;53.068;8.818;2024-03-02T06:44:45;100294.09;;;4.79;100.00
41967;BME280;27656;53.068;8.818;2024-03-02T06:47:11;100291.75;;;4.86;100.00
41967;BME280;27656;53.068;8.818;2024-03-02T06:49:38;100297.72;;;4.98;100.00
41967;BME280;27656;53.068;8.818;2024-03-02T06:52:04;100304.22;;;5.03;100.00
41967;BME280;27656;53.068;8.818;2024-03-02T06:54:31;100299.53;;;5.07;100.00
41967;BME280;27656;53.068;8.818;2024-03-02T06:56:57;100308.50;;;5.14;100.00
41967;BME280;27656;53.068;8.818;2024-03-02T06:59:24;100307.81;;;5.22;100.00
41967;BME280;27656;53.068;8.818;2024-03-02T07:01:50;100306.47;;;5.27;100.00
41967;BME280;27656;53.068;8.818;2024-03-02T07:04:17;100300.53;;;5.35;100.00
41967;BME280;27656;53.068;8.818;2024-03-02T07:06:44;100316.81;;;5.39;100.00
41967;BME280;27656;53.068;8.818;2024-03-02T07:09:10;100316.84;;;5.48;100.00
41967;BME280;27656;53.068;8.818;2024-03-02T07:11:37;100315.31;;;5.56;100.00
41967;BME280;27656;53.068;8.818;2024-03-02T07:14:03;100316.13;;;5.66;100.00
41967;BME280;27656;53.068;8.818;2024-03-02T07:16:30;100324.69;;;5.78;100.00
41967;BME280;27656;53.068;8.818;2024-03-02T07:18:59;100317.94;;;5.85;100.00
41967;BME280;27656;53.068;8.818;2024-03-02T07:21:27;100332.84;;;5.94;100.00
41967;BME280;27656;53.068;8.818;2024-03-02T07:23:54;100323.88;;;6.06;100.00
41967;BME280;27656;53.068;8.818;2024-03-02T07:26:20;100324.84;;;6.15;100.00
41967;BME280;27656;53.068;8.818;2024-03-02T07:28:50;100328.53;;;6.22;100.00
41967;BME280;27656;53.068;8.818;2024-03-02T07:31:17;100331.44;;;6.29;100.00
41967;BME280;27656;53.068;8.818;2024-03-02T07:33:44;100330.16;;;6.33;100.00
41967;BME280;27656;53.068;8.818;2024-03-02T07:36:12;100340.50;;;6.44;100.00
41967;BME280;27656;53.068;8.818;2024-03-02T07:38:39;100336.34;;;6.51;100.00
41967;BME280;27656;53.068;8.818;2024-03-02T07:41:07;100337.41;;;6.58;100.00
41967;BME280;27656;53.068;8.818;2024-03-02T07:43:34;100340.13;;;6.67;100.00
41967;BME280;27656;53.068;8.818;2024-03-02T07:46:01;100345.25;;;6.68;100.00
41967;BME280;27656;53.068;8.818;2024-03-02T07:48:29;100341.38;;;6.72;100.00
41967;BME280;27656;53.068;8.818;2024-03-02T07:50:57;100334.88;;;6.76;100.00
41967;BME280;27656;53.068;8.818;2024-03-02T07:53:23;100338.59;;;6.84;100.00
41967;BME280;27656;53.068;8.818;2024-03-02T07:55:50;100328.16;;;6.92;100.00
41967;BME280;27656;53.068;8.818;2024-03-02T07:58:17;100324.81;;;6.99;100.00
41967;BME280;27656;53.068;8.818;2024-03-02T08:00:46;100330.59;;;7.03;100.00
41967;BME280;27656;53.068;8.818;2024-03-02T08:03:13;100333.31;;;7.11;100.00
41967;BME280;27656;53.068;8.818;2024-03-02T08:05:40;100344.19;;;7.16;100.00
41967;BME280;27656;53.068;8.818;2024-03-02T08:08:06;100342.13;;;7.20;100.00
41967;BME280;27656;53.068;8.818;2024-03-02T08:10:33;100337.38;;;7.23;100.00
41967;BME280;27656;53.068;8.818;2024-03-02T08:13:00;100342.63;;;7.33;100.00
41967;BME280;27656;53.068;8.818;2024-03-02T08:15:26;100350.69;;;7.40;100.00
41967;BME280;27656;53.068;8.818;2024-03-02T08:17:53;100338.78;;;7.46;100.00
41967;BME280;27656;53.068;8.818;2024-03-02T08:20:19;100342.75;;;7.50;100.00
41967;BME280;27656;53.068;8.818;2024-03-02T08:22:46;100344.34;;;7.60;100.00
41967;BME280;27656;53.068;8.818;2024-03-02T08:25:13;100346.09;;;7.70;100.00
41967;BME280;27656;53.068;8.818;2024-03-02T08:27:40;100346.59;;;7.73;100.00
41967;BME280;27656;53.068;8.818;2024-03-02T08:30:07;100353.34;;;7.76;100.00
41967;BME280;27656;53.068;8.818;2024-03-02T08:32:34;100354.34;;;7.75;100.00
41967;BME280;27656;53.068;8.818;2024-03-02T08:35:01;100361.63;;;7.81;100.00
41967;BME280;27656;53.068;8.818;2024-03-02T08:37:27;100358.09;;;7.90;100.00
41967;BME280;27656;53.068;8.818;2024-03-02T08:39:54;100364.47;;;7.88;100.00
41967;BME280;27656;53.068;8.818;2024-03-02T08:42:21;100357.94;;;7.92;100.00
41967;BME280;27656;53.068;8.818;2024-03-02T08:44:48;100367.41;;;8.02;100.00
41967;BME280;27656;53.068;8.818;2024-03-02T08:47:15;100365.19;;;8.16;100.00
41967;BME280;27656;53.068;8.818;2024-03-02T08:49:41;100371.25;;;8.34;100.00
41967;BME280;27656;53.068;8.818;2024-03-02T08:52:08;100372.09;;;8.53;100.00
41967;BME280;27656;53.068;8.818;2024-03-02T08:54:35;100380.47;;;8.82;100.00
41967;BME280;27656;53.068;8.818;2024-03-02T08:57:02;100376.06;;;8.91;100.00
41967;BME280;27656;53.068;8.818;2024-03-02T08:59:28;100381.91;;;9.11;100.00
41967;BME280;27656;53.068;8.818;2024-03-02T09:01:55;100384.59;;;9.19;100.00
41967;BME280;27656;53.068;8.818;2024-03-02T09:04:22;100394.69;;;9.32;100.00
41967;BME280;27656;53.068;8.818;2024-03-02T09:06:52;100382.56;;;9.55;100.00
41967;BME280;27656;53.068;8.818;2024-03-02T09:09:19;100384.22;;;9.57;100.00
41967;BME280;27656;53.068;8.818;2024-03-02T09:11:46;100393.50;;;9.85;100.00
41967;BME280;27656;53.068;8.818;2024-03-02T09:14:13;100381.34;;;10.09;100.00
41967;BME280;27656;53.068;8.818;2024-03-02T09:16:42;100391.53;;;10.20;100.00
41967;BME280;27656;53.068;8.818;2024-03-02T09:19:08;100390.22;;;10.24;100.00
41967;BME280;27656;53.068;8.818;2024-03-02T09:21:36;100387.44;;;10.50;100.00
41967;BME280;27656;53.068;8.818;2024-03-02T09:24:03;100382.97;;;10.51;100.00
41967;BME280;27656;53.068;8.818;2024-03-02T09:26:30;100384.28;;;10.55;100.00
41967;BME280;27656;53.068;8.818;2024-03-02T09:28:56;100384.28;;;10.63;100.00
41967;BME280;27656;53.068;8.818;2024-03-02T09:31:23;100391.06;;;10.57;100.00
41967;BME280;27656;53.068;8.818;2024-03-02T09:33:49;100386.94;;;10.55;100.00
41967;BME280;27656;53.068;8.818;2024-03-02T09:36:19;100384.13;;;10.56;100.00
41967;BME280;27656;53.068;8.818;2024-03-02T09:38:46;100389.38;;;10.65;100.00
41967;BME280;27656;53.068;8.818;2024-03-02T09:41:14;100391.41;;;10.54;100.00
41967;BME280;27656;53.068;8.818;2024-03-02T09:43:41;100393.34;;;10.69;100.00
41967;BME280;27656;53.068;8.818;2024-03-02T09:46:11;100392.34;;;10.78;100.00
41967;BME280;27656;53.068;8.818;2024-03-02T09:48:38;100395.31;;;10.83;100.00
41967;BME280;27656;53.068;8.818;2024-03-02T09:51:05;100398.72;;;11.00;100.00
41967;BME280;27656;53.068;8.818;2024-03-02T09:53:33;100399.84;;;11.06;100.00
41967;BME280;27656;53.068;8.818;2024-03-02T09:56:00;100402.19;;;11.40;100.00
41967;BME280;27656;53.068;8.818;2024-03-02T09:58:27;100398.03;;;11.45;100.00
41967;BME280;27656;53.068;8.818;2024-03-02T10:00:53;100403.09;;;11.55;100.00
41967;BME280;27656;53.068;8.818;2024-03-02T10:03:22;100391.97;;;11.68;100.00
41967;BME280;27656;53.068;8.818;2024-03-02T10:05:49;100394.22;;;11.79;100.00
41967;BME280;27656;53.068;8.818;2024-03-02T10:08:16;100403.72;;;11.97;100.00
41967;BME280;27656;53.068;8.818;2024-03-02T10:10:43;100403.06;;;12.18;100.00
41967;BME280;27656;53.068;8.818;2024-03-02T10:13:11;100393.53;;;12.32;100.00
41967;BME280;27656;53.068;8.818;2024-03-02T10:15:39;100405.31;;;12.44;100.00
41967;BME280;27656;53.068;8.818;2024-03-02T10:18:12;100394.09;;;12.57;100.00
41967;BME280;27656;53.068;8.818;2024-03-02T10:20:40;100404.06;;;12.55;100.00
41967;BME280;27656;53.068;8.818;2024-03-02T10:23:14;100397.50;;;12.65;100.00
41967;BME280;27656;53.068;8.818;2024-03-02T10:25:43;100402.91;;;12.87;100.00
41967;BME280;27656;53.068;8.818;2024-03-02T10:28:23;100396.88;;;12.93;100.00
41967;BME280;27656;53.068;8.818;2024-03-02T10:30:49;100395.72;;;12.96;100.00
41967;BME280;27656;53.068;8.818;2024-03-02T10:33:18;100394.25;;;13.08;100.00
41967;BME280;27656;53.068;8.818;2024-03-02T10:35:45;100393.41;;;13.22;100.00
41967;BME280;27656;53.068;8.818;2024-03-02T10:38:12;100398.44;;;13.32;100.00
41967;BME280;27656;53.068;8.818;2024-03-02T10:40:38;100393.88;;;13.41;100.00
41967;BME280;27656;53.068;8.818;2024-03-02T10:43:05;100400.97;;;13.55;100.00
41967;BME280;27656;53.068;8.818;2024-03-02T10:45:34;100397.28;;;13.56;100.00
41967;BME280;27656;53.068;8.818;2024-03-02T10:48:02;100393.53;;;13.65;100.00
41967;BME280;27656;53.068;8.818;2024-03-02T10:50:29;100390.94;;;13.72;100.00
41967;BME280;27656;53.068;8.818;2024-03-02T10:52:56;100391.00;;;13.78;100.00
41967;BME280;27656;53.068;8.818;2024-03-02T10:55:22;100394.81;;;13.91;100.00
41967;BME280;27656;53.068;8.818;2024-03-02T10:57:54;100388.47;;;13.92;100.00
41967;BME280;27656;53.068;8.818;2024-03-02T11:00:25;100391.59;;;13.95;100.00
41967;BME280;27656;53.068;8.818;2024-03-02T11:02:58;100388.38;;;14.00;100.00
41967;BME280;27656;53.068;8.818;2024-03-02T11:05:36;100391.13;;;13.92;100.00
41967;BME280;27656;53.068;8.818;2024-03-02T11:08:08;100400.06;;;14.06;100.00
41967;BME280;27656;53.068;8.818;2024-03-02T11:10:37;100399.00;;;14.28;100.00
41967;BME280;27656;53.068;8.818;2024-03-02T11:13:14;100386.00;;;14.33;100.00
41967;BME280;27656;53.068;8.818;2024-03-02T11:15:43;100387.47;;;14.42;100.00
41967;BME280;27656;53.068;8.818;2024-03-02T11:18:10;100390.78;;;14.23;100.00
41967;BME280;27656;53.068;8.818;2024-03-02T11:20:39;100391.72;;;14.37;100.00
41967;BME280;27656;53.068;8.818;2024-03-02T11:23:07;100387.16;;;14.52;100.00
41967;BME280;27656;53.068;8.818;2024-03-02T11:25:34;100388.44;;;14.56;100.00
41967;BME280;27656;53.068;8.818;2024-03-02T11:28:02;100386.84;;;14.62;100.00
41967;BME280;27656;53.068;8.818;2024-03-02T11:33:03;100383.66;;;14.52;100.00
41967;BME280;27656;53.068;8.818;2024-03-02T11:35:41;100384.78;;;14.57;100.00
41967;BME280;27656;53.068;8.818;2024-03-02T11:38:15;100385.59;;;14.58;100.00
41967;BME280;27656;53.068;8.818;2024-03-02T11:40:42;100383.34;;;14.55;100.00
41967;BME280;27656;53.068;8.818;2024-03-02T11:43:08;100373.34;;;14.57;100.00
41967;BME280;27656;53.068;8.818;2024-03-02T11:45:36;100369.50;;;14.38;100.00
41967;BME280;27656;53.068;8.818;2024-03-02T11:48:06;100378.66;;;14.57;100.00
41967;BME280;27656;53.068;8.818;2024-03-02T11:50:49;100378.88;;;14.12;100.00
41967;BME280;27656;53.068;8.818;2024-03-02T11:53:17;100367.59;;;14.32;100.00
41967;BME280;27656;53.068;8.818;2024-03-02T11:55:44;100370.19;;;14.25;100.00
41967;BME280;27656;53.068;8.818;2024-03-02T11:58:15;100373.38;;;13.92;100.00
41967;BME280;27656;53.068;8.818;2024-03-02T12:00:51;100372.63;;;13.98;100.00
41967;BME280;27656;53.068;8.818;2024-03-02T12:03:22;100368.13;;;13.99;100.00
41967;BME280;27656;53.068;8.818;2024-03-02T12:05:53;100370.91;;;14.12;100.00
41967;BME280;27656;53.068;8.818;2024-03-02T12:08:21;100365.41;;;14.14;100.00
41967;BME280;27656;53.068;8.818;2024-03-02T12:11:01;100374.94;;;14.08;100.00
41967;BME280;27656;53.068;8.818;2024-03-02T12:13:30;100372.84;;;14.25;100.00
41967;BME280;27656;53.068;8.818;2024-03-02T12:15:56;100366.66;;;14.18;100.00
41967;BME280;27656;53.068;8.818;2024-03-02T12:18:23;100365.97;;;14.09;100.00
41967;BME280;27656;53.068;8.818;2024-03-02T12:20:50;100361.59;;;14.23;100.00
41967;BME280;27656;53.068;8.818;2024-03-02T12:23:20;100371.31;;;14.37;100.00
41967;BME280;27656;53.068;8.818;2024-03-02T12:25:47;100367.69;;;14.45;100.00
41967;BME280;27656;53.068;8.818;2024-03-02T12:28:14;100371.34;;;14.44;100.00
41967;BME280;27656;53.068;8.818;2024-03-02T12:30:40;100371.31;;;14.37;100.00
41967;BME280;27656;53.068;8.818;2024-03-02T12:33:07;100370.66;;;14.35;100.00
41967;BME280;27656;53.068;8.818;2024-03-02T12:35:36;100371.53;;;14.42;100.00
41967;BME280;27656;53.068;8.818;2024-03-02T12:38:02;100375.28;;;14.48;100.00
41967;BME280;27656;53.068;8.818;2024-03-02T12:40:30;100380.59;;;14.48;100.00
41967;BME280;27656;53.068;8.818;2024-03-02T12:42:57;100370.16;;;14.47;100.00
41967;BME280;27656;53.068;8.818;2024-03-02T12:45:23;100370.31;;;14.38;100.00
41967;BME280;27656;53.068;8.818;2024-03-02T12:47:51;100383.91;;;14.29;100.00
41967;BME280;27656;53.068;8.818;2024-03-02T12:50:18;100376.44;;;14.39;100.00
41967;BME280;27656;53.068;8.818;2024-03-02T12:52:55;100372.38;;;14.43;100.00